sensor_id;sensor_type;location;lat;lon;timestamp;temperature;humidity
67273;DHT22;54190;49.770;9.250;2023-10-08T00:01:35;13.30;99.90
67273;DHT22;54190;49.770;9.250;2023-10-08T00:04:06;13.30;99.90
67273;DHT22;54190;49.770;9.250;2023-10-08T00:06:33;13.30;99.90
67273;DHT22;54190;49.770;9.250;2023-10-08T00:08:59;13.30;99.90
67273;DHT22;54190;49.770;9.250;2023-10-08T00:11:35;13.30;99.90
67273;DHT22;54190;49.770;9.250;2023-10-08T00:14:02;13.30;99.90
67273;DHT22;54190;49.770;9.250;2023-10-08T00:16:30;13.20;99.90
67273;DHT22;54190;49.770;9.250;2023-10-08T00:18:59;13.20;99.90
67273;DHT22;54190;49.770;9.250;2023-10-08T00:21:33;13.20;99.90
67273;DHT22;54190;49.770;9.250;2023-10-08T00:24:00;13.20;99.90
67273;DHT22;54190;49.770;9.250;2023-10-08T00:26:29;13.20;99.90
67273;DHT22;54190;49.770;9.250;2023-10-08T00:29:08;13.20;99.90
67273;DHT22;54190;49.770;9.250;2023-10-08T00:31:47;13.10;99.90
67273;DHT22;54190;49.770;9.250;2023-10-08T00:34:15;13.10;99.90
67273;DHT22;54190;49.770;9.250;2023-10-08T00:36:44;13.00;99.90
67273;DHT22;54190;49.770;9.250;2023-10-08T00:39:11;13.00;99.90
67273;DHT22;54190;49.770;9.250;2023-10-08T00:41:45;13.10;99.90
67273;DHT22;54190;49.770;9.250;2023-10-08T00:44:12;13.00;99.90
67273;DHT22;54190;49.770;9.250;2023-10-08T00:46:42;13.00;99.90
67273;DHT22;54190;49.770;9.250;2023-10-08T00:49:16;13.10;99.90
67273;DHT22;54190;49.770;9.250;2023-10-08T00:52:01;13.00;99.90
67273;DHT22;54190;49.770;9.250;2023-10-08T00:54:35;13.00;99.90
67273;DHT22;54190;49.770;9.250;2023-10-08T00:57:18;13.00;99.90
67273;DHT22;54190;49.770;9.250;2023-10-08T00:59:48;13.00;99.90
67273;DHT22;54190;49.770;9.250;2023-10-08T01:02:27;13.00;99.90
67273;DHT22;54190;49.770;9.250;2023-10-08T01:04:55;13.00;99.90
67273;DHT22;54190;49.770;9.250;2023-10-08T01:07:22;13.00;99.90
67273;DHT22;54190;49.770;9.250;2023-10-08T01:09:49;13.00;99.90
67273;DHT22;54190;49.770;9.250;2023-10-08T01:12:26;13.10;99.90
67273;DHT22;54190;49.770;9.250;2023-10-08T01:15:02;13.10;99.90
67273;DHT22;54190;49.770;9.250;2023-10-08T01:17:47;13.00;99.90
67273;DHT22;54190;49.770;9.250;2023-10-08T01:20:35;13.10;99.90
67273;DHT22;54190;49.770;9.250;2023-10-08T01:23:10;13.10;99.90
67273;DHT22;54190;49.770;9.250;2023-10-08T01:25:42;13.10;99.90
67273;DHT22;54190;49.770;9.250;2023-10-08T01:28:09;13.00;99.90
67273;DHT22;54190;49.770;9.250;2023-10-08T01:30:44;13.00;99.90
67273;DHT22;54190;49.770;9.250;2023-10-08T01:33:14;13.00;99.90
67273;DHT22;54190;49.770;9.250;2023-10-08T01:35:41;13.00;99.90
67273;DHT22;54190;49.770;9.250;2023-10-08T01:38:08;13.00;99.90
67273;DHT22;54190;49.770;9.250;2023-10-08T01:40:42;13.00;99.90
67273;DHT22;54190;49.770;9.250;2023-10-08T01:43:07;13.00;99.90
67273;DHT22;54190;49.770;9.250;2023-10-08T01:45:36;13.10;99.90
67273;DHT22;54190;49.770;9.250;2023-10-08T01:48:05;13.10;99.90
67273;DHT22;54190;49.770;9.250;2023-10-08T01:50:31;13.10;99.90
67273;DHT22;54190;49.770;9.250;2023-10-08T01:53:00;13.10;99.90
67273;DHT22;54190;49.770;9.250;2023-10-08T01:55:26;13.20;99.90
67273;DHT22;54190;49.770;9.250;2023-10-08T01:57:52;13.20;99.90
67273;DHT22;54190;49.770;9.250;2023-10-08T02:00:18;13.20;99.90
67273;DHT22;54190;49.770;9.250;2023-10-08T02:02:49;13.30;99.90
67273;DHT22;54190;49.770;9.250;2023-10-08T02:05:16;13.30;99.90
67273;DHT22;54190;49.770;9.250;2023-10-08T02:07:47;13.20;99.90
67273;DHT22;54190;49.770;9.250;2023-10-08T02:10:13;13.30;99.90
67273;DHT22;54190;49.770;9.250;2023-10-08T02:12:41;13.30;99.90
67273;DHT22;54190;49.770;9.250;2023-10-08T02:15:07;13.20;99.90
67273;DHT22;54190;49.770;9.250;2023-10-08T02:17:34;13.20;99.90
67273;DHT22;54190;49.770;9.250;2023-10-08T02:20:00;13.20;99.90
67273;DHT22;54190;49.770;9.250;2023-10-08T02:22:26;13.30;99.90
67273;DHT22;54190;49.770;9.250;2023-10-08T02:24:53;13.30;99.90
67273;DHT22;54190;49.770;9.250;2023-10-08T02:27:20;13.30;99.90
67273;DHT22;54190;49.770;9.250;2023-10-08T02:29:46;13.40;99.90
67273;DHT22;54190;49.770;9.250;2023-10-08T02:32:11;13.40;99.90
67273;DHT22;54190;49.770;9.250;2023-10-08T02:34:37;13.40;99.90
67273;DHT22;54190;49.770;9.250;2023-10-08T02:37:03;13.40;99.90
67273;DHT22;54190;49.770;9.250;2023-10-08T02:39:31;13.40;99.90
67273;DHT22;54190;49.770;9.250;2023-10-08T02:41:57;13.40;99.90
67273;DHT22;54190;49.770;9.250;2023-10-08T02:44:24;13.40;99.90
67273;DHT22;54190;49.770;9.250;2023-10-08T02:46:50;13.40;99.90
67273;DHT22;54190;49.770;9.250;2023-10-08T02:49:18;13.40;99.90
67273;DHT22;54190;49.770;9.250;2023-10-08T02:51:53;13.30;99.90
67273;DHT22;54190;49.770;9.250;2023-10-08T02:54:20;13.30;99.90
67273;DHT22;54190;49.770;9.250;2023-10-08T02:56:52;13.30;99.90
67273;DHT22;54190;49.770;9.250;2023-10-08T02:59:30;13.30;99.90
67273;DHT22;54190;49.770;9.250;2023-10-08T03:02:07;13.30;99.90
67273;DHT22;54190;49.770;9.250;2023-10-08T03:04:43;13.30;99.90
67273;DHT22;54190;49.770;9.250;2023-10-08T03:07:13;13.30;99.90
67273;DHT22;54190;49.770;9.250;2023-10-08T03:09:48;13.20;99.90
67273;DHT22;54190;49.770;9.250;2023-10-08T03:12:28;13.20;99.90
67273;DHT22;54190;49.770;9.250;2023-10-08T03:15:01;13.20;99.90
67273;DHT22;54190;49.770;9.250;2023-10-08T03:17:38;13.20;99.90
67273;DHT22;54190;49.770;9.250;2023-10-08T03:20:15;13.20;99.90
67273;DHT22;54190;49.770;9.250;2023-10-08T03:22:55;13.20;99.90
67273;DHT22;54190;49.770;9.250;2023-10-08T03:25:23;13.20;99.90
67273;DHT22;54190;49.770;9.250;2023-10-08T03:27:50;13.10;99.90
67273;DHT22;54190;49.770;9.250;2023-10-08T03:30:16;13.10;99.90
67273;DHT22;54190;49.770;9.250;2023-10-08T03:32:43;13.10;99.90
67273;DHT22;54190;49.770;9.250;2023-10-08T03:35:20;13.00;99.90
67273;DHT22;54190;49.770;9.250;2023-10-08T03:37:53;13.00;99.90
67273;DHT22;54190;49.770;9.250;2023-10-08T03:40:20;13.00;99.90
67273;DHT22;54190;49.770;9.250;2023-10-08T03:43:08;13.00;99.90
67273;DHT22;54190;49.770;9.250;2023-10-08T03:45:45;13.00;99.90
67273;DHT22;54190;49.770;9.250;2023-10-08T03:48:19;13.00;99.90
67273;DHT22;54190;49.770;9.250;2023-10-08T03:50:48;13.00;99.90
67273;DHT22;54190;49.770;9.250;2023-10-08T03:53:22;13.00;99.90
67273;DHT22;54190;49.770;9.250;2023-10-08T03:55:48;13.10;99.90
67273;DHT22;54190;49.770;9.250;2023-10-08T03:58:17;13.00;99.90
67273;DHT22;54190;49.770;9.250;2023-10-08T04:00:54;13.00;99.90
67273;DHT22;54190;49.770;9.250;2023-10-08T04:03:37;13.00;99.90
67273;DHT22;54190;49.770;9.250;2023-10-08T04:06:22;13.00;99.90
67273;DHT22;54190;49.770;9.250;2023-10-08T04:08:54;13.00;99.90
67273;DHT22;54190;49.770;9.250;2023-10-08T04:11:35;12.90;99.90
67273;DHT22;54190;49.770;9.250;2023-10-08T04:14:02;12.90;99.90
67273;DHT22;54190;49.770;9.250;2023-10-08T04:16:28;12.90;99.90
67273;DHT22;54190;49.770;9.250;2023-10-08T04:18:55;12.90;99.90
67273;DHT22;54190;49.770;9.250;2023-10-08T04:21:24;12.90;99.90
67273;DHT22;54190;49.770;9.250;2023-10-08T04:23:53;13.00;99.90
67273;DHT22;54190;49.770;9.250;2023-10-08T04:26:22;12.90;99.90
67273;DHT22;54190;49.770;9.250;2023-10-08T04:28:55;12.90;99.90
67273;DHT22;54190;49.770;9.250;2023-10-08T04:31:26;13.00;99.90
67273;DHT22;54190;49.770;9.250;2023-10-08T04:34:05;12.90;99.90
67273;DHT22;54190;49.770;9.250;2023-10-08T04:36:48;12.90;99.90
67273;DHT22;54190;49.770;9.250;2023-10-08T04:39:20;12.90;99.90
67273;DHT22;54190;49.770;9.250;2023-10-08T04:41:54;12.90;99.90
67273;DHT22;54190;49.770;9.250;2023-10-08T04:44:23;12.90;99.90
67273;DHT22;54190;49.770;9.250;2023-10-08T04:46:51;12.90;99.90
67273;DHT22;54190;49.770;9.250;2023-10-08T04:49:18;13.00;99.90
67273;DHT22;54190;49.770;9.250;2023-10-08T04:52:00;13.00;99.90
67273;DHT22;54190;49.770;9.250;2023-10-08T04:54:27;12.90;99.90
67273;DHT22;54190;49.770;9.250;2023-10-08T04:56:57;12.80;99.90
67273;DHT22;54190;49.770;9.250;2023-10-08T04:59:24;12.80;99.90
67273;DHT22;54190;49.770;9.250;2023-10-08T05:01:59;12.90;99.90
67273;DHT22;54190;49.770;9.250;2023-10-08T05:04:43;12.80;99.90
67273;DHT22;54190;49.770;9.250;2023-10-08T05:07:18;12.90;99.90
67273;DHT22;54190;49.770;9.250;2023-10-08T05:09:48;12.90;99.90
67273;DHT22;54190;49.770;9.250;2023-10-08T05:12:29;12.90;99.90
67273;DHT22;54190;49.770;9.250;2023-10-08T05:15:11;12.90;99.90
67273;DHT22;54190;49.770;9.250;2023-10-08T05:17:44;12.90;99.90
67273;DHT22;54190;49.770;9.250;2023-10-08T05:20:19;13.00;99.90
67273;DHT22;54190;49.770;9.250;2023-10-08T05:22:56;12.90;99.90
67273;DHT22;54190;49.770;9.250;2023-10-08T05:25:32;13.00;99.90
67273;DHT22;54190;49.770;9.250;2023-10-08T05:28:23;13.00;99.90
67273;DHT22;54190;49.770;9.250;2023-10-08T05:30:52;13.00;99.90
67273;DHT22;54190;49.770;9.250;2023-10-08T05:33:37;13.00;99.90
67273;DHT22;54190;49.770;9.250;2023-10-08T05:36:21;13.00;99.90
67273;DHT22;54190;49.770;9.250;2023-10-08T05:39:05;13.00;99.90
67273;DHT22;54190;49.770;9.250;2023-10-08T05:41:49;13.00;99.90
67273;DHT22;54190;49.770;9.250;2023-10-08T05:44:30;13.00;99.90
67273;DHT22;54190;49.770;9.250;2023-10-08T05:47:06;13.00;99.90
67273;DHT22;54190;49.770;9.250;2023-10-08T05:49:38;13.00;99.90
67273;DHT22;54190;49.770;9.250;2023-10-08T05:52:04;13.00;99.90
67273;DHT22;54190;49.770;9.250;2023-10-08T05:54:31;13.00;99.90
67273;DHT22;54190;49.770;9.250;2023-10-08T05:56:59;13.00;99.90
67273;DHT22;54190;49.770;9.250;2023-10-08T05:59:38;13.00;99.90
67273;DHT22;54190;49.770;9.250;2023-10-08T06:05:09;13.00;99.90
67273;DHT22;54190;49.770;9.250;2023-10-08T06:07:51;13.00;99.90
67273;DHT22;54190;49.770;9.250;2023-10-08T06:12:52;13.00;99.90
67273;DHT22;54190;49.770;9.250;2023-10-08T06:15:27;13.00;99.90
67273;DHT22;54190;49.770;9.250;2023-10-08T06:18:10;13.10;99.90
67273;DHT22;54190;49.770;9.250;2023-10-08T06:20:36;13.10;99.90
67273;DHT22;54190;49.770;9.250;2023-10-08T06:23:05;13.10;99.90
67273;DHT22;54190;49.770;9.250;2023-10-08T06:25:33;13.00;99.90
67273;DHT22;54190;49.770;9.250;2023-10-08T06:28:11;13.10;99.90
67273;DHT22;54190;49.770;9.250;2023-10-08T06:30:37;13.10;99.90
67273;DHT22;54190;49.770;9.250;2023-10-08T06:33:07;13.10;99.90
67273;DHT22;54190;49.770;9.250;2023-10-08T06:35:33;13.10;99.90
67273;DHT22;54190;49.770;9.250;2023-10-08T06:37:59;13.20;99.90
67273;DHT22;54190;49.770;9.250;2023-10-08T06:40:26;13.20;99.90
67273;DHT22;54190;49.770;9.250;2023-10-08T06:43:04;13.30;99.90
67273;DHT22;54190;49.770;9.250;2023-10-08T06:45:47;13.40;99.90
67273;DHT22;54190;49.770;9.250;2023-10-08T06:48:21;13.50;99.90
67273;DHT22;54190;49.770;9.250;2023-10-08T06:50:48;13.60;99.90
67273;DHT22;54190;49.770;9.250;2023-10-08T06:53:14;13.70;99.90
67273;DHT22;54190;49.770;9.250;2023-10-08T06:55:42;13.80;99.90
67273;DHT22;54190;49.770;9.250;2023-10-08T06:58:09;13.80;99.90
67273;DHT22;54190;49.770;9.250;2023-10-08T07:00:37;13.80;99.90
67273;DHT22;54190;49.770;9.250;2023-10-08T07:03:09;13.90;99.90
67273;DHT22;54190;49.770;9.250;2023-10-08T07:05:41;13.90;99.90
67273;DHT22;54190;49.770;9.250;2023-10-08T07:08:10;13.90;99.90
67273;DHT22;54190;49.770;9.250;2023-10-08T07:10:39;13.90;99.90
67273;DHT22;54190;49.770;9.250;2023-10-08T07:13:07;13.90;99.90
67273;DHT22;54190;49.770;9.250;2023-10-08T07:15:34;13.90;99.90
67273;DHT22;54190;49.770;9.250;2023-10-08T07:18:06;14.00;99.90
67273;DHT22;54190;49.770;9.250;2023-10-08T07:20:45;14.00;99.90
67273;DHT22;54190;49.770;9.250;2023-10-08T07:23:13;14.00;99.90
67273;DHT22;54190;49.770;9.250;2023-10-08T07:25:55;14.10;99.90
67273;DHT22;54190;49.770;9.250;2023-10-08T07:28:45;14.20;99.90
67273;DHT22;54190;49.770;9.250;2023-10-08T07:31:15;14.40;99.90
67273;DHT22;54190;49.770;9.250;2023-10-08T07:33:46;14.40;99.90
67273;DHT22;54190;49.770;9.250;2023-10-08T07:36:12;14.40;99.90
67273;DHT22;54190;49.770;9.250;2023-10-08T07:38:43;14.50;99.90
67273;DHT22;54190;49.770;9.250;2023-10-08T07:41:10;14.60;99.90
67273;DHT22;54190;49.770;9.250;2023-10-08T07:43:43;14.60;99.90
67273;DHT22;54190;49.770;9.250;2023-10-08T07:46:12;14.60;99.90
67273;DHT22;54190;49.770;9.250;2023-10-08T07:48:40;14.70;99.90
67273;DHT22;54190;49.770;9.250;2023-10-08T07:51:08;14.70;99.90
67273;DHT22;54190;49.770;9.250;2023-10-08T07:53:34;14.70;99.90
67273;DHT22;54190;49.770;9.250;2023-10-08T07:56:08;14.80;99.90
67273;DHT22;54190;49.770;9.250;2023-10-08T07:58:37;14.80;99.90
67273;DHT22;54190;49.770;9.250;2023-10-08T08:01:07;14.90;99.90
67273;DHT22;54190;49.770;9.250;2023-10-08T08:03:34;15.00;99.90
67273;DHT22;54190;49.770;9.250;2023-10-08T08:06:05;15.00;99.90
67273;DHT22;54190;49.770;9.250;2023-10-08T08:08:35;15.20;99.90
67273;DHT22;54190;49.770;9.250;2023-10-08T08:11:05;15.30;99.90
67273;DHT22;54190;49.770;9.250;2023-10-08T08:13:34;15.30;99.90
67273;DHT22;54190;49.770;9.250;2023-10-08T08:16:00;15.30;99.90
67273;DHT22;54190;49.770;9.250;2023-10-08T08:18:38;15.40;99.90
67273;DHT22;54190;49.770;9.250;2023-10-08T08:21:08;15.40;99.90
67273;DHT22;54190;49.770;9.250;2023-10-08T08:23:39;15.50;99.90
67273;DHT22;54190;49.770;9.250;2023-10-08T08:26:05;15.50;99.90
67273;DHT22;54190;49.770;9.250;2023-10-08T08:28:32;15.60;99.90
67273;DHT22;54190;49.770;9.250;2023-10-08T08:31:05;15.60;99.90
67273;DHT22;54190;49.770;9.250;2023-10-08T08:33:42;15.60;99.90
67273;DHT22;54190;49.770;9.250;2023-10-08T08:36:23;15.60;99.90
67273;DHT22;54190;49.770;9.250;2023-10-08T08:38:49;15.70;99.90
67273;DHT22;54190;49.770;9.250;2023-10-08T08:41:16;15.80;99.90
67273;DHT22;54190;49.770;9.250;2023-10-08T08:43:48;15.80;99.90
67273;DHT22;54190;49.770;9.250;2023-10-08T08:46:14;15.90;99.90
67273;DHT22;54190;49.770;9.250;2023-10-08T08:48:41;15.90;99.90
67273;DHT22;54190;49.770;9.250;2023-10-08T08:51:08;16.00;99.90
67273;DHT22;54190;49.770;9.250;2023-10-08T08:53:38;16.00;99.90
67273;DHT22;54190;49.770;9.250;2023-10-08T08:56:07;16.00;99.90
67273;DHT22;54190;49.770;9.250;2023-10-08T08:58:35;16.10;99.90
67273;DHT22;54190;49.770;9.250;2023-10-08T09:01:04;16.10;99.90
67273;DHT22;54190;49.770;9.250;2023-10-08T09:03:31;16.20;99.90
67273;DHT22;54190;49.770;9.250;2023-10-08T09:05:58;16.20;99.90
67273;DHT22;54190;49.770;9.250;2023-10-08T09:08:37;16.30;99.90
67273;DHT22;54190;49.770;9.250;2023-10-08T09:11:04;16.30;99.90
67273;DHT22;54190;49.770;9.250;2023-10-08T09:13:34;16.40;99.90
67273;DHT22;54190;49.770;9.250;2023-10-08T09:16:16;16.50;99.90
67273;DHT22;54190;49.770;9.250;2023-10-08T09:18:47;16.50;99.90
67273;DHT22;54190;49.770;9.250;2023-10-08T09:21:18;16.60;99.90
67273;DHT22;54190;49.770;9.250;2023-10-08T09:23:49;16.70;99.90
67273;DHT22;54190;49.770;9.250;2023-10-08T09:26:25;16.80;99.90
67273;DHT22;54190;49.770;9.250;2023-10-08T09:28:52;16.80;99.90
67273;DHT22;54190;49.770;9.250;2023-10-08T09:31:19;16.90;99.90
67273;DHT22;54190;49.770;9.250;2023-10-08T09:33:55;16.90;99.90
67273;DHT22;54190;49.770;9.250;2023-10-08T09:36:22;16.90;99.90
67273;DHT22;54190;49.770;9.250;2023-10-08T09:39:00;16.90;99.90
67273;DHT22;54190;49.770;9.250;2023-10-08T09:41:29;17.00;99.90
67273;DHT22;54190;49.770;9.250;2023-10-08T09:43:56;17.10;99.90
67273;DHT22;54190;49.770;9.250;2023-10-08T09:46:30;17.20;99.90
67273;DHT22;54190;49.770;9.250;2023-10-08T09:49:01;17.20;99.90
67273;DHT22;54190;49.770;9.250;2023-10-08T09:51:30;17.30;99.90
67273;DHT22;54190;49.770;9.250;2023-10-08T09:54:09;17.30;99.90
67273;DHT22;54190;49.770;9.250;2023-10-08T09:56:36;17.40;99.90
67273;DHT22;54190;49.770;9.250;2023-10-08T09:59:02;17.50;99.90
67273;DHT22;54190;49.770;9.250;2023-10-08T10:01:29;17.50;99.90
67273;DHT22;54190;49.770;9.250;2023-10-08T10:03:57;17.50;99.90
67273;DHT22;54190;49.770;9.250;2023-10-08T10:06:26;17.50;99.90
67273;DHT22;54190;49.770;9.250;2023-10-08T10:08:55;17.50;99.90
67273;DHT22;54190;49.770;9.250;2023-10-08T10:11:26;17.50;99.90
67273;DHT22;54190;49.770;9.250;2023-10-08T10:13:58;17.60;99.90
67273;DHT22;54190;49.770;9.250;2023-10-08T10:16:27;17.60;99.90
67273;DHT22;54190;49.770;9.250;2023-10-08T10:18:57;17.60;99.90
67273;DHT22;54190;49.770;9.250;2023-10-08T10:21:31;17.70;99.90
67273;DHT22;54190;49.770;9.250;2023-10-08T10:23:57;17.70;99.90
67273;DHT22;54190;49.770;9.250;2023-10-08T10:31:38;17.80;99.90
67273;DHT22;54190;49.770;9.250;2023-10-08T10:34:10;17.90;99.90
67273;DHT22;54190;49.770;9.250;2023-10-08T10:36:40;18.00;99.90
67273;DHT22;54190;49.770;9.250;2023-10-08T10:39:12;18.00;99.90
67273;DHT22;54190;49.770;9.250;2023-10-08T10:41:56;18.10;99.90
67273;DHT22;54190;49.770;9.250;2023-10-08T10:44:33;18.30;99.90
67273;DHT22;54190;49.770;9.250;2023-10-08T10:47:02;18.40;99.90
67273;DHT22;54190;49.770;9.250;2023-10-08T10:49:50;18.40;99.90
67273;DHT22;54190;49.770;9.250;2023-10-08T10:52:28;18.40;99.90
67273;DHT22;54190;49.770;9.250;2023-10-08T10:55:05;18.50;99.90
67273;DHT22;54190;49.770;9.250;2023-10-08T10:57:41;18.40;99.90
67273;DHT22;54190;49.770;9.250;2023-10-08T11:00:08;18.50;99.90
67273;DHT22;54190;49.770;9.250;2023-10-08T11:02:52;18.50;99.90
67273;DHT22;54190;49.770;9.250;2023-10-08T11:05:23;18.50;99.90
67273;DHT22;54190;49.770;9.250;2023-10-08T11:07:57;18.50;99.90
67273;DHT22;54190;49.770;9.250;2023-10-08T11:10:37;18.60;99.90
67273;DHT22;54190;49.770;9.250;2023-10-08T11:13:05;18.70;99.90
67273;DHT22;54190;49.770;9.250;2023-10-08T11:15:40;18.80;99.90
67273;DHT22;54190;49.770;9.250;2023-10-08T11:18:13;18.90;99.90
67273;DHT22;54190;49.770;9.250;2023-10-08T11:20:43;19.00;99.90
67273;DHT22;54190;49.770;9.250;2023-10-08T11:23:34;19.00;99.90
67273;DHT22;54190;49.770;9.250;2023-10-08T11:26:04;19.00;99.90
67273;DHT22;54190;49.770;9.250;2023-10-08T11:28:38;19.10;99.90
67273;DHT22;54190;49.770;9.250;2023-10-08T11:31:14;19.20;99.90
67273;DHT22;54190;49.770;9.250;2023-10-08T11:33:42;19.20;99.90
67273;DHT22;54190;49.770;9.250;2023-10-08T11:36:09;19.30;99.90
67273;DHT22;54190;49.770;9.250;2023-10-08T11:38:45;19.50;99.90
67273;DHT22;54190;49.770;9.250;2023-10-08T11:41:16;19.60;99.90
67273;DHT22;54190;49.770;9.250;2023-10-08T11:43:52;19.50;99.90
67273;DHT22;54190;49.770;9.250;2023-10-08T11:46:28;19.40;99.90
67273;DHT22;54190;49.770;9.250;2023-10-08T11:49:15;19.40;99.90
67273;DHT22;54190;49.770;9.250;2023-10-08T11:51:44;19.40;99.90
67273;DHT22;54190;49.770;9.250;2023-10-08T11:54:11;19.60;99.90
67273;DHT22;54190;49.770;9.250;2023-10-08T11:56:38;19.60;99.90
67273;DHT22;54190;49.770;9.250;2023-10-08T11:59:05;19.70;99.90
67273;DHT22;54190;49.770;9.250;2023-10-08T12:01:38;19.70;99.90
67273;DHT22;54190;49.770;9.250;2023-10-08T12:04:11;19.80;99.90
67273;DHT22;54190;49.770;9.250;2023-10-08T12:06:39;19.90;99.90
67273;DHT22;54190;49.770;9.250;2023-10-08T12:09:15;19.90;99.90
67273;DHT22;54190;49.770;9.250;2023-10-08T12:11:41;20.00;99.90
67273;DHT22;54190;49.770;9.250;2023-10-08T12:14:08;20.00;99.90
67273;DHT22;54190;49.770;9.250;2023-10-08T12:16:34;20.00;99.90
67273;DHT22;54190;49.770;9.250;2023-10-08T12:19:05;19.90;99.90
67273;DHT22;54190;49.770;9.250;2023-10-08T12:21:41;19.90;99.90
67273;DHT22;54190;49.770;9.250;2023-10-08T12:24:07;20.00;99.90
67273;DHT22;54190;49.770;9.250;2023-10-08T12:26:36;20.10;99.90
67273;DHT22;54190;49.770;9.250;2023-10-08T12:29:02;20.20;99.90
67273;DHT22;54190;49.770;9.250;2023-10-08T12:31:27;20.20;99.90
67273;DHT22;54190;49.770;9.250;2023-10-08T12:33:55;20.20;99.90
67273;DHT22;54190;49.770;9.250;2023-10-08T12:36:26;20.30;99.90
67273;DHT22;54190;49.770;9.250;2023-10-08T12:38:53;20.30;99.90
67273;DHT22;54190;49.770;9.250;2023-10-08T12:41:25;20.40;99.90
67273;DHT22;54190;49.770;9.250;2023-10-08T12:43:54;20.40;99.90
67273;DHT22;54190;49.770;9.250;2023-10-08T12:46:21;20.40;99.90
67273;DHT22;54190;49.770;9.250;2023-10-08T12:48:50;20.40;99.90
67273;DHT22;54190;49.770;9.250;2023-10-08T12:51:21;20.40;99.90
67273;DHT22;54190;49.770;9.250;2023-10-08T12:53:50;20.40;99.90
67273;DHT22;54190;49.770;9.250;2023-10-08T12:56:20;20.40;99.90
67273;DHT22;54190;49.770;9.250;2023-10-08T12:58:57;20.60;99.90
67273;DHT22;54190;49.770;9.250;2023-10-08T13:01:23;20.60;99.90
67273;DHT22;54190;49.770;9.250;2023-10-08T13:03:49;20.70;99.90
67273;DHT22;54190;49.770;9.250;2023-10-08T13:06:17;20.70;99.90
67273;DHT22;54190;49.770;9.250;2023-10-08T13:08:59;20.70;99.90
67273;DHT22;54190;49.770;9.250;2023-10-08T13:11:26;20.70;99.90
67273;DHT22;54190;49.770;9.250;2023-10-08T13:13:56;20.80;99.90
67273;DHT22;54190;49.770;9.250;2023-10-08T13:16:26;20.80;99.90
67273;DHT22;54190;49.770;9.250;2023-10-08T13:18:56;20.90;99.90
67273;DHT22;54190;49.770;9.250;2023-10-08T13:21:24;20.90;99.90
67273;DHT22;54190;49.770;9.250;2023-10-08T13:23:53;20.80;99.90
67273;DHT22;54190;49.770;9.250;2023-10-08T13:26:22;20.80;99.90
67273;DHT22;54190;49.770;9.250;2023-10-08T13:28:50;20.70;99.90
67273;DHT22;54190;49.770;9.250;2023-10-08T13:31:16;20.60;99.90
67273;DHT22;54190;49.770;9.250;2023-10-08T13:33:43;20.50;99.90
67273;DHT22;54190;49.770;9.250;2023-10-08T13:36:10;20.60;99.90
67273;DHT22;54190;49.770;9.250;2023-10-08T13:38:39;20.70;99.90
67273;DHT22;54190;49.770;9.250;2023-10-08T13:41:07;20.80;99.90
67273;DHT22;54190;49.770;9.250;2023-10-08T13:43:44;20.80;99.90
67273;DHT22;54190;49.770;9.250;2023-10-08T13:46:14;20.80;99.90
67273;DHT22;54190;49.770;9.250;2023-10-08T13:48:42;20.80;99.90
67273;DHT22;54190;49.770;9.250;2023-10-08T13:51:12;20.90;99.90
67273;DHT22;54190;49.770;9.250;2023-10-08T13:53:48;21.00;99.90
67273;DHT22;54190;49.770;9.250;2023-10-08T13:56:21;21.20;99.90
67273;DHT22;54190;49.770;9.250;2023-10-08T13:58:52;21.20;99.90
67273;DHT22;54190;49.770;9.250;2023-10-08T14:01:23;21.30;99.90
67273;DHT22;54190;49.770;9.250;2023-10-08T14:03:51;21.20;99.90
67273;DHT22;54190;49.770;9.250;2023-10-08T14:06:22;21.10;99.90
67273;DHT22;54190;49.770;9.250;2023-10-08T14:08:48;21.00;99.90
67273;DHT22;54190;49.770;9.250;2023-10-08T14:11:21;21.10;99.90
67273;DHT22;54190;49.770;9.250;2023-10-08T14:13:53;21.20;99.90
67273;DHT22;54190;49.770;9.250;2023-10-08T14:16:19;21.20;99.90
67273;DHT22;54190;49.770;9.250;2023-10-08T14:18:50;21.30;99.90
67273;DHT22;54190;49.770;9.250;2023-10-08T14:21:22;21.30;99.90
67273;DHT22;54190;49.770;9.250;2023-10-08T14:23:59;21.40;99.90
67273;DHT22;54190;49.770;9.250;2023-10-08T14:26:32;21.60;99.90
67273;DHT22;54190;49.770;9.250;2023-10-08T14:29:02;21.60;99.90
67273;DHT22;54190;49.770;9.250;2023-10-08T14:31:39;21.70;99.90
67273;DHT22;54190;49.770;9.250;2023-10-08T14:34:05;21.70;99.90
67273;DHT22;54190;49.770;9.250;2023-10-08T14:36:32;21.70;99.90
67273;DHT22;54190;49.770;9.250;2023-10-08T14:39:17;21.60;99.90
67273;DHT22;54190;49.770;9.250;2023-10-08T14:42:15;21.60;99.90
67273;DHT22;54190;49.770;9.250;2023-10-08T14:44:59;21.60;99.90
67273;DHT22;54190;49.770;9.250;2023-10-08T14:47:26;21.50;99.90
67273;DHT22;54190;49.770;9.250;2023-10-08T14:49:51;21.50;99.90
67273;DHT22;54190;49.770;9.250;2023-10-08T14:52:17;21.50;99.90
67273;DHT22;54190;49.770;9.250;2023-10-08T14:54:44;21.40;99.90
67273;DHT22;54190;49.770;9.250;2023-10-08T14:57:14;21.40;99.90
67273;DHT22;54190;49.770;9.250;2023-10-08T14:59:40;21.40;99.90
67273;DHT22;54190;49.770;9.250;2023-10-08T15:02:07;21.30;99.90
67273;DHT22;54190;49.770;9.250;2023-10-08T15:04:33;21.20;99.90
67273;DHT22;54190;49.770;9.250;2023-10-08T15:07:01;21.20;99.90
67273;DHT22;54190;49.770;9.250;2023-10-08T15:09:27;21.00;99.90
67273;DHT22;54190;49.770;9.250;2023-10-08T15:11:54;21.00;99.90
67273;DHT22;54190;49.770;9.250;2023-10-08T15:14:20;20.90;99.90
67273;DHT22;54190;49.770;9.250;2023-10-08T15:16:48;20.90;99.90
67273;DHT22;54190;49.770;9.250;2023-10-08T15:19:21;20.80;99.90
67273;DHT22;54190;49.770;9.250;2023-10-08T15:21:51;20.70;99.90
67273;DHT22;54190;49.770;9.250;2023-10-08T15:24:21;20.60;99.90
67273;DHT22;54190;49.770;9.250;2023-10-08T15:26:48;20.60;99.90
67273;DHT22;54190;49.770;9.250;2023-10-08T15:29:15;20.50;99.90
67273;DHT22;54190;49.770;9.250;2023-10-08T15:31:41;20.50;99.90
67273;DHT22;54190;49.770;9.250;2023-10-08T15:34:08;20.50;99.90
67273;DHT22;54190;49.770;9.250;2023-10-08T15:36:34;20.50;99.90
67273;DHT22;54190;49.770;9.250;2023-10-08T15:39:00;20.50;99.90
67273;DHT22;54190;49.770;9.250;2023-10-08T15:41:25;20.40;99.90
67273;DHT22;54190;49.770;9.250;2023-10-08T15:43:51;20.40;99.90
67273;DHT22;54190;49.770;9.250;2023-10-08T15:46:19;20.30;99.90
67273;DHT22;54190;49.770;9.250;2023-10-08T15:48:45;20.20;99.90
67273;DHT22;54190;49.770;9.250;2023-10-08T15:51:11;20.10;99.90
67273;DHT22;54190;49.770;9.250;2023-10-08T15:53:37;20.00;99.90
67273;DHT22;54190;49.770;9.250;2023-10-08T15:56:04;19.90;99.90
67273;DHT22;54190;49.770;9.250;2023-10-08T15:58:30;19.90;99.90
67273;DHT22;54190;49.770;9.250;2023-10-08T16:00:56;19.80;99.90
67273;DHT22;54190;49.770;9.250;2023-10-08T16:03:21;19.70;99.90
67273;DHT22;54190;49.770;9.250;2023-10-08T16:05:47;19.80;99.90